createdAt,value
2022-11-30T00:01:18.587Z,3.70
2022-11-30T00:03:45.134Z,3.90
2022-11-30T00:06:14.119Z,3.83
2022-11-30T00:08:41.103Z,3.53
2022-11-30T00:11:15.569Z,3.72
2022-11-30T00:13:44.989Z,3.97
2022-11-30T00:16:11.438Z,3.90
2022-11-30T00:18:39.012Z,4.50
2022-11-30T00:21:08.921Z,3.63
2022-11-30T00:23:41.266Z,4.18
2022-11-30T00:26:10.667Z,4.18
2022-11-30T00:28:38.488Z,4.28
2022-11-30T00:31:07.968Z,4.10
2022-11-30T00:33:36.287Z,4.13
2022-11-30T00:36:06.361Z,3.92
2022-11-30T00:38:33.682Z,4.28
2022-11-30T00:41:01.148Z,4.43
2022-11-30T00:43:28.155Z,4.93
2022-11-30T00:45:54.716Z,4.45
2022-11-30T00:48:21.326Z,4.50
2022-11-30T00:50:49.120Z,4.65
2022-11-30T00:53:15.841Z,4.57
2022-11-30T00:55:45.243Z,4.80
2022-11-30T00:58:12.111Z,4.28
2022-11-30T01:00:38.980Z,4.65
2022-11-30T01:03:05.728Z,4.07
2022-11-30T01:05:36.451Z,4.50
2022-11-30T01:08:04.715Z,4.50
2022-11-30T01:10:31.169Z,4.53
2022-11-30T01:12:57.773Z,4.43
2022-11-30T01:15:24.209Z,4.60
2022-11-30T01:17:51.099Z,5.10
2022-11-30T01:20:18.024Z,4.23
2022-11-30T01:22:47.705Z,5.70
2022-11-30T01:25:14.166Z,4.82
2022-11-30T01:27:40.674Z,4.35
2022-11-30T01:30:07.900Z,4.35
2022-11-30T01:32:34.363Z,4.40
2022-11-30T01:35:00.806Z,4.47
2022-11-30T01:37:29.868Z,4.72
2022-11-30T01:39:57.474Z,5.07
2022-11-30T01:42:24.134Z,5.03
2022-11-30T01:45:01.399Z,4.80
2022-11-30T01:47:37.486Z,4.85
2022-11-30T01:50:18.636Z,5.10
2022-11-30T01:52:48.619Z,4.32
2022-11-30T01:55:31.881Z,5.50
2022-11-30T01:58:12.158Z,5.03
2022-11-30T02:00:40.277Z,4.55
2022-11-30T02:03:23.878Z,5.32
2022-11-30T02:05:50.368Z,4.53
2022-11-30T02:08:17.534Z,4.72
2022-11-30T02:10:51.688Z,5.10
2022-11-30T02:13:18.157Z,4.72
2022-11-30T02:15:47.667Z,5.22
2022-11-30T02:18:18.744Z,4.85
2022-11-30T02:20:56.252Z,5.22
2022-11-30T02:23:34.330Z,4.33
2022-11-30T02:26:27.609Z,4.78
2022-11-30T02:29:03.510Z,4.88
2022-11-30T02:31:46.936Z,4.95
2022-11-30T02:34:15.673Z,4.97
2022-11-30T02:36:45.155Z,4.70
2022-11-30T02:39:11.921Z,4.95
2022-11-30T02:41:39.968Z,4.85
2022-11-30T02:44:09.291Z,4.60
2022-11-30T02:46:53.114Z,5.10
2022-11-30T02:49:45.717Z,5.40
2022-11-30T02:52:13.407Z,5.25
2022-11-30T02:54:40.144Z,5.30
2022-11-30T02:57:07.923Z,4.93
2022-11-30T02:59:34.362Z,5.32
2022-11-30T03:02:01.165Z,4.90
2022-11-30T03:04:27.588Z,5.15
2022-11-30T03:06:53.995Z,5.13
2022-11-30T03:09:20.534Z,4.80
2022-11-30T03:11:47.164Z,4.93
2022-11-30T03:14:16.446Z,4.53
2022-11-30T03:16:44.125Z,5.03
2022-11-30T03:19:10.567Z,4.90
2022-11-30T03:21:36.894Z,5.35
2022-11-30T03:24:03.452Z,5.03
2022-11-30T03:26:29.828Z,5.10
2022-11-30T03:28:58.016Z,6.70
2022-11-30T03:31:24.530Z,4.70
2022-11-30T03:33:51.003Z,4.78
2022-11-30T03:36:17.562Z,5.38
2022-11-30T03:38:44.023Z,4.67
2022-11-30T03:41:16.539Z,4.60
2022-11-30T03:43:44.111Z,4.65
2022-11-30T03:46:10.945Z,4.95
2022-11-30T03:48:37.722Z,4.95
2022-11-30T03:51:05.088Z,4.87
2022-11-30T03:53:31.720Z,5.05
2022-11-30T03:56:03.563Z,5.13
2022-11-30T03:58:30.160Z,4.68
2022-11-30T04:01:09.902Z,4.97
2022-11-30T04:03:37.252Z,5.67
2022-11-30T04:06:04.731Z,5.38
2022-11-30T04:08:31.669Z,5.28
2022-11-30T04:11:00.185Z,4.78
2022-11-30T04:13:27.813Z,5.13
2022-11-30T04:15:55.036Z,5.23
2022-11-30T04:18:23.957Z,4.68
2022-11-30T04:20:55.340Z,4.38
2022-11-30T04:23:23.081Z,4.25
2022-11-30T04:25:49.596Z,5.15
2022-11-30T04:28:17.536Z,4.77
2022-11-30T04:30:46.356Z,5.50
2022-11-30T04:33:14.837Z,5.03
2022-11-30T04:35:54.949Z,4.63
2022-11-30T04:38:21.906Z,4.55
2022-11-30T04:40:48.264Z,4.50
2022-11-30T04:43:14.770Z,5.05
2022-11-30T04:45:41.445Z,5.03
2022-11-30T04:48:08.578Z,5.05
2022-11-30T04:50:35.673Z,4.90
2022-11-30T04:53:02.304Z,4.47
2022-11-30T04:55:29.182Z,4.70
2022-11-30T04:57:55.661Z,4.93
2022-11-30T05:00:22.219Z,4.88
2022-11-30T05:02:52.867Z,4.82
2022-11-30T05:05:20.214Z,5.00
2022-11-30T05:07:50.779Z,4.50
2022-11-30T05:10:17.369Z,4.80
2022-11-30T05:12:43.760Z,4.70
2022-11-30T05:15:10.509Z,4.88
2022-11-30T05:17:36.918Z,4.83
2022-11-30T05:20:03.589Z,6.60
2022-11-30T05:22:29.998Z,4.80
2022-11-30T05:24:58.704Z,5.30
2022-11-30T05:27:25.145Z,4.60
2022-11-30T05:29:51.599Z,5.30
2022-11-30T05:32:18.261Z,4.50
2022-11-30T05:34:51.228Z,4.78
2022-11-30T05:37:21.614Z,4.90
2022-11-30T05:39:48.042Z,4.70
2022-11-30T05:42:16.825Z,5.13
2022-11-30T05:44:43.516Z,4.50
2022-11-30T05:47:12.552Z,4.53
2022-11-30T05:49:41.975Z,4.55
2022-11-30T05:52:08.573Z,4.50
2022-11-30T05:54:35.080Z,4.77
2022-11-30T05:57:01.510Z,5.35
2022-11-30T05:59:27.950Z,4.65
2022-11-30T06:01:54.636Z,5.13
2022-11-30T06:04:21.685Z,4.90
2022-11-30T06:06:49.573Z,5.00
2022-11-30T06:09:16.134Z,4.30
2022-11-30T06:11:42.581Z,4.63
2022-11-30T06:14:09.056Z,4.45
2022-11-30T06:16:39.133Z,4.60
2022-11-30T06:19:05.758Z,4.27
2022-11-30T06:21:32.252Z,4.68
2022-11-30T06:23:58.662Z,3.95
2022-11-30T06:26:25.128Z,4.40
2022-11-30T06:28:51.517Z,4.25
2022-11-30T06:31:17.947Z,4.30
2022-11-30T06:33:44.418Z,4.85
2022-11-30T06:36:10.952Z,5.82
2022-11-30T06:38:37.647Z,4.90
2022-11-30T06:41:08.156Z,4.43
2022-11-30T06:43:38.770Z,4.43
2022-11-30T06:46:06.911Z,4.40
2022-11-30T06:48:34.297Z,4.70
2022-11-30T06:51:08.392Z,4.53
2022-11-30T06:53:35.149Z,4.38
2022-11-30T06:56:10.712Z,4.53
2022-11-30T06:58:41.533Z,4.45
2022-11-30T07:01:11.333Z,4.38
2022-11-30T07:03:38.463Z,4.25
2022-11-30T07:06:10.748Z,6.72
2022-11-30T07:08:40.567Z,7.43
2022-11-30T07:11:08.646Z,7.95
2022-11-30T07:13:37.987Z,7.93
2022-11-30T07:16:06.343Z,7.45
2022-11-30T07:18:33.256Z,10.18
2022-11-30T07:21:05.126Z,9.17
2022-11-30T07:23:55.846Z,7.30
2022-11-30T07:26:23.383Z,7.93
2022-11-30T07:28:55.493Z,6.68
2022-11-30T07:31:29.102Z,6.45
2022-11-30T07:33:59.896Z,7.07
2022-11-30T07:36:27.470Z,6.65
2022-11-30T07:38:53.864Z,7.05
2022-11-30T07:41:20.259Z,6.50
2022-11-30T07:43:46.759Z,5.80
2022-11-30T07:46:15.090Z,5.93
2022-11-30T07:48:45.144Z,5.97
2022-11-30T07:51:25.067Z,5.60
2022-11-30T07:53:51.529Z,7.15
2022-11-30T07:56:20.226Z,7.70
2022-11-30T07:58:47.787Z,5.90
2022-11-30T08:01:19.637Z,6.28
2022-11-30T08:03:46.277Z,5.15
2022-11-30T08:06:25.032Z,6.07
2022-11-30T08:08:53.627Z,5.63
2022-11-30T08:11:26.325Z,5.00
2022-11-30T08:13:53.405Z,6.00
2022-11-30T08:16:22.963Z,7.13
2022-11-30T08:18:49.760Z,5.47
2022-11-30T08:21:19.155Z,6.03
2022-11-30T08:23:48.391Z,6.80
2022-11-30T08:26:18.880Z,5.55
2022-11-30T08:28:47.362Z,4.82
2022-11-30T08:31:25.456Z,6.75
2022-11-30T08:34:01.120Z,6.25
2022-11-30T08:36:29.296Z,4.93
2022-11-30T08:38:58.252Z,6.70
2022-11-30T08:41:25.752Z,5.63
2022-11-30T08:43:53.398Z,4.60
2022-11-30T08:49:24.817Z,5.90
2022-11-30T08:52:16.867Z,6.60
2022-11-30T08:54:42.828Z,5.32
2022-11-30T08:57:09.461Z,4.80
2022-11-30T08:59:35.919Z,5.45
2022-11-30T09:02:02.507Z,8.57
2022-11-30T09:04:28.901Z,9.13
2022-11-30T09:06:59.062Z,10.70
2022-11-30T09:09:25.867Z,11.48
2022-11-30T09:11:52.296Z,11.52
2022-11-30T09:14:18.658Z,11.47
2022-11-30T09:16:45.108Z,11.68
2022-11-30T09:19:11.549Z,10.18
2022-11-30T09:21:38.123Z,15.50
2022-11-30T09:24:04.836Z,13.82
2022-11-30T09:26:31.290Z,12.30
2022-11-30T09:28:57.703Z,12.98
2022-11-30T09:31:25.786Z,9.65
2022-11-30T09:33:53.339Z,12.73
2022-11-30T09:36:27.197Z,11.25
2022-11-30T09:38:54.941Z,9.40
2022-11-30T09:41:54.012Z,11.50
2022-11-30T09:44:32.526Z,9.30
2022-11-30T09:47:17.788Z,12.00
2022-11-30T09:49:47.482Z,10.27
2022-11-30T09:52:37.322Z,10.93
2022-11-30T09:55:13.962Z,10.27
2022-11-30T09:57:52.523Z,11.15
2022-11-30T10:00:21.771Z,14.57
2022-11-30T10:02:54.207Z,12.38
2022-11-30T10:05:28.213Z,12.93
2022-11-30T10:08:19.039Z,16.65
2022-11-30T10:10:56.178Z,15.20
2022-11-30T10:13:59.650Z,12.15
2022-11-30T10:16:44.617Z,14.55
2022-11-30T10:19:28.073Z,14.43
2022-11-30T10:21:54.620Z,11.35
2022-11-30T10:24:40.409Z,14.13
2022-11-30T10:27:19.746Z,14.15
2022-11-30T10:29:46.321Z,15.93
2022-11-30T10:32:21.984Z,14.07
2022-11-30T10:35:01.753Z,15.18
2022-11-30T10:37:39.593Z,16.55
2022-11-30T10:40:17.013Z,16.45
2022-11-30T10:42:58.642Z,19.35
2022-11-30T10:45:32.517Z,15.27
2022-11-30T10:48:15.132Z,14.88
2022-11-30T10:50:42.328Z,17.02
2022-11-30T10:53:11.621Z,18.15
2022-11-30T10:55:45.446Z,17.10
2022-11-30T10:58:17.856Z,16.57
2022-11-30T11:01:19.096Z,17.25
2022-11-30T11:03:45.538Z,14.27
2022-11-30T11:06:24.148Z,14.00
2022-11-30T11:08:50.910Z,15.70
2022-11-30T11:11:38.205Z,13.13
2022-11-30T11:14:19.477Z,15.30
2022-11-30T11:16:55.855Z,14.55
2022-11-30T11:19:42.506Z,16.13
2022-11-30T11:22:21.699Z,16.60
2022-11-30T11:24:50.680Z,16.63
2022-11-30T11:27:33.661Z,17.50
2022-11-30T11:30:38.753Z,13.02
2022-11-30T11:33:13.710Z,10.93
2022-11-30T11:35:46.480Z,12.77
2022-11-30T11:38:29.476Z,15.10
2022-11-30T11:41:01.261Z,11.95
2022-11-30T11:44:05.564Z,12.75
2022-11-30T11:46:34.584Z,12.88
2022-11-30T11:49:03.973Z,10.30
2022-11-30T11:51:36.478Z,12.07
2022-11-30T11:54:18.182Z,11.60
2022-11-30T11:56:44.754Z,13.45
2022-11-30T11:59:23.036Z,11.43
2022-11-30T12:02:03.207Z,12.85
2022-11-30T12:04:35.807Z,11.13
2022-11-30T12:07:19.777Z,11.00
2022-11-30T12:10:51.316Z,12.57
2022-11-30T12:13:19.514Z,13.13
2022-11-30T12:16:08.800Z,12.90
2022-11-30T12:18:51.166Z,15.07
2022-11-30T12:21:42.656Z,12.95
2022-11-30T12:24:39.049Z,16.17
2022-11-30T12:27:24.617Z,11.52
2022-11-30T12:29:53.992Z,15.30
2022-11-30T12:32:46.345Z,13.70
2022-11-30T12:35:46.083Z,16.83
2022-11-30T12:38:21.503Z,17.00
2022-11-30T12:41:06.701Z,18.10
2022-11-30T12:43:50.215Z,18.98
2022-11-30T12:46:30.103Z,18.23
2022-11-30T12:49:11.887Z,20.13
2022-11-30T12:52:24.541Z,17.10
2022-11-30T12:55:02.944Z,14.50
2022-11-30T12:57:39.143Z,18.48
2022-11-30T13:00:28.690Z,14.60
2022-11-30T13:03:29.593Z,15.65
2022-11-30T13:06:23.192Z,14.70
2022-11-30T13:08:58.670Z,11.63
2022-11-30T13:11:33.776Z,15.18
2022-11-30T13:14:00.799Z,15.33
2022-11-30T13:16:31.349Z,12.07
2022-11-30T13:19:10.406Z,15.60
2022-11-30T13:21:47.256Z,15.77
2022-11-30T13:24:28.744Z,13.13
2022-11-30T13:27:15.937Z,12.67
2022-11-30T13:30:07.217Z,12.07
2022-11-30T13:32:57.319Z,12.45
2022-11-30T13:35:31.624Z,12.30
2022-11-30T13:38:34.620Z,12.32
2022-11-30T13:41:04.503Z,11.00
2022-11-30T13:44:00.123Z,10.68
2022-11-30T13:46:26.619Z,10.50
2022-11-30T13:49:26.478Z,9.93
2022-11-30T13:52:20.821Z,11.10
2022-11-30T13:54:44.497Z,11.37
2022-11-30T13:57:18.623Z,9.93
2022-11-30T13:59:47.494Z,9.93
2022-11-30T14:02:52.455Z,10.30
2022-11-30T14:05:18.930Z,11.30
2022-11-30T14:08:06.316Z,10.33
2022-11-30T14:10:43.719Z,9.90
2022-11-30T14:13:10.779Z,9.60
2022-11-30T14:15:37.099Z,11.45
2022-11-30T14:18:11.219Z,8.82
2022-11-30T14:21:14.945Z,11.17
2022-11-30T14:23:55.832Z,7.72
2022-11-30T14:26:42.339Z,8.88
2022-11-30T14:29:08.706Z,10.07
2022-11-30T14:31:48.055Z,8.52
2022-11-30T14:34:19.757Z,8.20
2022-11-30T14:36:53.506Z,10.23
2022-11-30T14:39:24.317Z,8.00
2022-11-30T14:41:50.703Z,8.23
2022-11-30T14:44:17.105Z,10.32
2022-11-30T14:46:43.556Z,8.33
2022-11-30T14:49:21.848Z,8.13
2022-11-30T14:51:51.990Z,7.53
2022-11-30T14:55:03.741Z,8.13
2022-11-30T14:57:39.777Z,8.00
2022-11-30T15:00:06.810Z,9.13
2022-11-30T15:02:38.527Z,8.52
2022-11-30T15:05:09.705Z,9.40
2022-11-30T15:07:37.299Z,8.68
2022-11-30T15:10:11.321Z,9.13
2022-11-30T15:12:40.502Z,7.87
2022-11-30T15:15:22.607Z,7.70
2022-11-30T15:17:53.929Z,7.53
2022-11-30T15:20:26.135Z,8.93
2022-11-30T15:22:54.577Z,6.93
2022-11-30T15:25:24.753Z,7.07
2022-11-30T15:27:51.785Z,8.02
2022-11-30T15:30:18.445Z,7.53
2022-11-30T15:32:47.535Z,7.68
2022-11-30T15:35:20.317Z,7.55
2022-11-30T15:37:47.908Z,7.00
2022-11-30T15:40:37.539Z,8.02
2022-11-30T15:43:19.274Z,6.95
2022-11-30T15:45:58.051Z,7.03
2022-11-30T15:48:38.425Z,8.70
2022-11-30T15:51:05.681Z,9.00
2022-11-30T15:53:49.707Z,7.05
2022-11-30T15:56:27.671Z,8.73
2022-11-30T15:59:19.031Z,8.30
2022-11-30T16:02:14.575Z,7.35
2022-11-30T16:04:58.728Z,7.57
2022-11-30T16:07:30.010Z,8.93
2022-11-30T16:10:14.003Z,9.23
2022-11-30T16:12:49.756Z,7.40
2022-11-30T16:15:19.422Z,6.75
2022-11-30T16:17:45.983Z,7.20
2022-11-30T16:20:14.126Z,6.80
2022-11-30T16:22:45.223Z,7.93
2022-11-30T16:25:24.970Z,7.45
2022-11-30T16:28:05.047Z,8.40
2022-11-30T16:30:41.460Z,14.00
2022-11-30T16:33:19.194Z,8.52
2022-11-30T16:36:01.106Z,7.72
2022-11-30T16:38:28.671Z,8.88
2022-11-30T16:40:55.828Z,9.38
2022-11-30T16:43:23.026Z,9.17
2022-11-30T16:45:50.810Z,8.23
2022-11-30T16:48:18.381Z,9.23
2022-11-30T16:50:47.887Z,8.93
2022-11-30T16:53:17.839Z,8.10
2022-11-30T16:55:44.510Z,8.50
2022-11-30T16:58:10.946Z,8.25
2022-11-30T17:00:40.317Z,6.70
2022-11-30T17:03:22.818Z,8.13
2022-11-30T17:05:49.686Z,9.15
2022-11-30T17:08:16.174Z,9.37
2022-11-30T17:10:42.837Z,7.53
2022-11-30T17:13:14.599Z,8.65
2022-11-30T17:15:41.367Z,6.88
2022-11-30T17:18:07.922Z,10.77
2022-11-30T17:20:35.521Z,7.37
2022-11-30T17:23:02.138Z,7.25
2022-11-30T17:25:28.756Z,7.97
2022-11-30T17:27:55.461Z,8.25
2022-11-30T17:30:23.864Z,8.38
2022-11-30T17:32:53.344Z,9.73
2022-11-30T17:35:19.780Z,8.35
2022-11-30T17:37:46.259Z,8.68
2022-11-30T17:40:15.405Z,10.70
2022-11-30T17:42:42.956Z,7.97
2022-11-30T17:45:09.884Z,7.37
2022-11-30T17:47:36.355Z,8.40
2022-11-30T17:50:02.798Z,8.20
2022-11-30T17:52:29.339Z,8.02
2022-11-30T17:54:55.733Z,7.72
2022-11-30T17:57:22.250Z,7.70
2022-11-30T17:59:48.658Z,7.82
2022-11-30T18:02:15.160Z,7.95
2022-11-30T18:04:41.701Z,8.52
2022-11-30T18:07:08.189Z,9.45
2022-11-30T18:09:39.401Z,9.67
2022-11-30T18:12:08.734Z,8.43
2022-11-30T18:14:35.440Z,9.25
2022-11-30T18:17:01.873Z,8.77
2022-11-30T18:19:28.438Z,8.75
2022-11-30T18:21:55.483Z,10.20
2022-11-30T18:24:25.294Z,9.85
2022-11-30T18:26:52.525Z,7.55
2022-11-30T18:29:20.230Z,9.60
2022-11-30T18:31:48.450Z,10.25
2022-11-30T18:34:15.369Z,8.10
2022-11-30T18:36:41.762Z,15.95
2022-11-30T18:39:08.555Z,11.20
2022-11-30T18:41:34.940Z,9.20
2022-11-30T18:44:01.392Z,11.10
2022-11-30T18:46:27.939Z,8.73
2022-11-30T18:48:54.761Z,10.07
2022-11-30T18:51:26.372Z,12.05
2022-11-30T18:54:01.768Z,9.45
2022-11-30T18:56:31.784Z,9.23
2022-11-30T18:59:13.646Z,13.43
2022-11-30T19:01:41.183Z,9.63
2022-11-30T19:04:11.472Z,9.75
2022-11-30T19:06:42.367Z,10.43
2022-11-30T19:09:13.095Z,12.38
2022-11-30T19:11:40.329Z,11.10
2022-11-30T19:14:10.370Z,12.27
2022-11-30T19:16:36.845Z,10.73
2022-11-30T19:19:06.360Z,7.90
2022-11-30T19:21:33.847Z,12.60
2022-11-30T19:24:00.552Z,12.83
2022-11-30T19:26:30.297Z,11.20
2022-11-30T19:29:00.238Z,11.55
2022-11-30T19:31:29.470Z,12.00
2022-11-30T19:33:58.908Z,11.88
2022-11-30T19:36:27.818Z,10.80
2022-11-30T19:38:57.737Z,9.82
2022-11-30T19:41:24.351Z,9.95
2022-11-30T19:44:01.001Z,10.93
2022-11-30T19:46:29.202Z,14.30
2022-11-30T19:49:01.107Z,11.13
2022-11-30T19:51:29.527Z,12.63
2022-11-30T19:53:57.523Z,11.55
2022-11-30T19:56:25.097Z,12.85
2022-11-30T19:58:52.179Z,11.82
2022-11-30T20:01:24.488Z,11.50
2022-11-30T20:03:52.584Z,12.45
2022-11-30T20:06:20.206Z,10.88
2022-11-30T20:08:46.986Z,12.50
2022-11-30T20:11:15.338Z,11.32
2022-11-30T20:13:47.599Z,12.60
2022-11-30T20:16:19.681Z,12.50
2022-11-30T20:19:00.588Z,11.07
2022-11-30T20:21:29.915Z,11.95
2022-11-30T20:24:02.597Z,10.48
2022-11-30T20:26:32.432Z,12.03
2022-11-30T20:29:00.986Z,14.07
2022-11-30T20:31:28.855Z,11.57
2022-11-30T20:33:55.483Z,13.15
2022-11-30T20:36:22.112Z,14.20
2022-11-30T20:38:48.699Z,14.80
2022-11-30T20:41:20.907Z,14.80
2022-11-30T20:43:47.780Z,14.38
2022-11-30T20:46:21.841Z,12.63
2022-11-30T20:48:49.173Z,13.68
2022-11-30T20:51:33.888Z,14.83
2022-11-30T20:54:02.641Z,14.10
2022-11-30T20:56:35.476Z,12.15
2022-11-30T20:59:06.080Z,14.50
2022-11-30T21:01:33.364Z,17.33
2022-11-30T21:04:00.702Z,15.37
2022-11-30T21:06:32.837Z,16.45
2022-11-30T21:08:59.951Z,14.20
2022-11-30T21:11:27.970Z,11.90
2022-11-30T21:13:54.892Z,15.00
2022-11-30T21:16:27.692Z,13.57
2022-11-30T21:18:59.473Z,15.43
2022-11-30T21:21:28.863Z,12.50
2022-11-30T21:23:57.701Z,12.18
2022-11-30T21:26:33.764Z,13.65
2022-11-30T21:29:09.739Z,13.20
2022-11-30T21:31:36.206Z,14.00
2022-11-30T21:34:03.938Z,14.70
2022-11-30T21:36:30.509Z,16.17
2022-11-30T21:39:05.131Z,14.07
2022-11-30T21:41:36.393Z,15.23
2022-11-30T21:44:03.931Z,13.50
2022-11-30T21:46:30.666Z,13.35
2022-11-30T21:48:59.972Z,13.82
2022-11-30T21:51:29.200Z,13.10
2022-11-30T21:53:59.583Z,11.70
2022-11-30T21:56:32.310Z,13.60
2022-11-30T21:58:59.595Z,15.02
2022-11-30T22:01:29.349Z,17.40
2022-11-30T22:03:58.109Z,15.50
2022-11-30T22:06:26.023Z,14.07
2022-11-30T22:08:52.523Z,21.38
2022-11-30T22:11:21.811Z,16.33
2022-11-30T22:13:55.695Z,14.57
2022-11-30T22:16:24.375Z,16.30
2022-11-30T22:18:57.963Z,15.60
2022-11-30T22:21:27.611Z,17.02
2022-11-30T22:23:56.545Z,16.65
2022-11-30T22:26:26.105Z,16.38
2022-11-30T22:28:55.496Z,13.95
2022-11-30T22:31:24.835Z,14.13
2022-11-30T22:33:51.428Z,15.60
2022-11-30T22:36:20.974Z,13.13
2022-11-30T22:38:52.731Z,14.45
2022-11-30T22:41:19.164Z,14.32
2022-11-30T22:43:46.598Z,16.17
2022-11-30T22:46:21.709Z,17.73
2022-11-30T22:48:48.434Z,14.00
2022-11-30T22:51:20.939Z,15.23
2022-11-30T22:53:48.855Z,15.60
2022-11-30T22:56:18.704Z,14.50
2022-11-30T22:58:49.111Z,15.60
2022-11-30T23:01:18.206Z,15.55
2022-11-30T23:03:45.872Z,14.93
2022-11-30T23:06:17.702Z,13.73
2022-11-30T23:08:45.993Z,12.67
2022-11-30T23:11:14.832Z,15.48
2022-11-30T23:13:42.585Z,14.55
2022-11-30T23:16:10.384Z,16.42
2022-11-30T23:18:42.890Z,14.85
2022-11-30T23:21:12.744Z,14.60
2022-11-30T23:23:39.902Z,14.85
2022-11-30T23:26:20.730Z,13.90
2022-11-30T23:28:49.205Z,14.93
2022-11-30T23:31:33.954Z,15.18
2022-11-30T23:34:04.587Z,13.63
2022-11-30T23:36:31.778Z,17.40
2022-11-30T23:39:00.692Z,13.25
2022-11-30T23:41:27.323Z,15.00
2022-11-30T23:43:54.058Z,14.80
2022-11-30T23:46:20.891Z,15.03
2022-11-30T23:48:48.080Z,15.68
2022-11-30T23:51:17.523Z,15.80
2022-11-30T23:53:46.708Z,14.68
2022-11-30T23:56:15.939Z,15.38
2022-11-30T23:58:43.101Z,15.63
